sensor_id;sensor_type;location;lat;lon;timestamp;temperature;humidity
12477;DHT22;6303;51.504;6.300;2023-07-31T00:02:14;26.10;68.20
12477;DHT22;6303;51.504;6.300;2023-07-31T00:04:41;26.00;68.10
12477;DHT22;6303;51.504;6.300;2023-07-31T00:07:09;26.00;68.20
12477;DHT22;6303;51.504;6.300;2023-07-31T00:09:36;26.10;68.30
12477;DHT22;6303;51.504;6.300;2023-07-31T00:12:04;26.10;68.40
12477;DHT22;6303;51.504;6.300;2023-07-31T00:14:31;26.10;68.50
12477;DHT22;6303;51.504;6.300;2023-07-31T00:16:59;26.10;68.40
12477;DHT22;6303;51.504;6.300;2023-07-31T00:19:26;26.10;68.40
12477;DHT22;6303;51.504;6.300;2023-07-31T00:21:53;26.10;68.50
12477;DHT22;6303;51.504;6.300;2023-07-31T00:24:21;26.10;68.40
12477;DHT22;6303;51.504;6.300;2023-07-31T00:26:48;26.00;68.30
12477;DHT22;6303;51.504;6.300;2023-07-31T00:29:15;26.00;68.30
12477;DHT22;6303;51.504;6.300;2023-07-31T00:31:43;26.00;68.50
12477;DHT22;6303;51.504;6.300;2023-07-31T00:34:10;26.00;68.40
12477;DHT22;6303;51.504;6.300;2023-07-31T00:36:37;26.00;68.40
12477;DHT22;6303;51.504;6.300;2023-07-31T00:39:04;26.00;68.30
12477;DHT22;6303;51.504;6.300;2023-07-31T00:41:32;26.00;68.30
12477;DHT22;6303;51.504;6.300;2023-07-31T00:44:01;26.00;68.30
12477;DHT22;6303;51.504;6.300;2023-07-31T00:46:28;26.00;68.30
12477;DHT22;6303;51.504;6.300;2023-07-31T00:48:55;26.00;68.30
12477;DHT22;6303;51.504;6.300;2023-07-31T00:51:24;26.00;68.30
12477;DHT22;6303;51.504;6.300;2023-07-31T00:53:51;26.00;68.30
12477;DHT22;6303;51.504;6.300;2023-07-31T00:56:22;26.00;68.30
12477;DHT22;6303;51.504;6.300;2023-07-31T00:58:52;26.00;68.40
12477;DHT22;6303;51.504;6.300;2023-07-31T01:01:19;26.00;68.40
12477;DHT22;6303;51.504;6.300;2023-07-31T01:03:46;26.00;68.30
12477;DHT22;6303;51.504;6.300;2023-07-31T01:06:18;26.00;68.40
12477;DHT22;6303;51.504;6.300;2023-07-31T01:08:54;26.00;68.40
12477;DHT22;6303;51.504;6.300;2023-07-31T01:11:25;26.00;68.40
12477;DHT22;6303;51.504;6.300;2023-07-31T01:13:56;26.00;68.40
12477;DHT22;6303;51.504;6.300;2023-07-31T01:16:24;26.00;68.40
12477;DHT22;6303;51.504;6.300;2023-07-31T01:18:52;26.00;68.40
12477;DHT22;6303;51.504;6.300;2023-07-31T01:21:31;26.00;68.40
12477;DHT22;6303;51.504;6.300;2023-07-31T01:24:20;26.00;68.30
12477;DHT22;6303;51.504;6.300;2023-07-31T01:26:55;26.00;68.30
12477;DHT22;6303;51.504;6.300;2023-07-31T01:29:29;26.00;68.30
12477;DHT22;6303;51.504;6.300;2023-07-31T01:32:02;26.00;68.30
12477;DHT22;6303;51.504;6.300;2023-07-31T01:34:29;25.30;67.60
12477;DHT22;6303;51.504;6.300;2023-07-31T01:36:58;26.00;68.00
12477;DHT22;6303;51.504;6.300;2023-07-31T01:39:25;26.00;68.00
12477;DHT22;6303;51.504;6.300;2023-07-31T01:41:53;26.00;67.90
12477;DHT22;6303;51.504;6.300;2023-07-31T01:44:20;26.00;67.80
12477;DHT22;6303;51.504;6.300;2023-07-31T01:46:47;26.00;67.80
12477;DHT22;6303;51.504;6.300;2023-07-31T01:49:14;26.00;67.80
12477;DHT22;6303;51.504;6.300;2023-07-31T01:51:41;26.00;67.90
12477;DHT22;6303;51.504;6.300;2023-07-31T01:54:08;26.00;67.90
12477;DHT22;6303;51.504;6.300;2023-07-31T01:56:36;26.00;67.90
12477;DHT22;6303;51.504;6.300;2023-07-31T01:59:05;26.00;67.70
12477;DHT22;6303;51.504;6.300;2023-07-31T02:01:33;26.00;67.70
12477;DHT22;6303;51.504;6.300;2023-07-31T02:04:00;26.00;67.60
12477;DHT22;6303;51.504;6.300;2023-07-31T02:06:27;26.00;67.50
12477;DHT22;6303;51.504;6.300;2023-07-31T02:08:54;26.00;67.60
12477;DHT22;6303;51.504;6.300;2023-07-31T02:11:21;26.00;67.80
12477;DHT22;6303;51.504;6.300;2023-07-31T02:13:49;26.00;67.90
12477;DHT22;6303;51.504;6.300;2023-07-31T02:16:17;25.90;67.80
12477;DHT22;6303;51.504;6.300;2023-07-31T02:18:44;25.90;67.80
12477;DHT22;6303;51.504;6.300;2023-07-31T02:21:12;25.90;67.70
12477;DHT22;6303;51.504;6.300;2023-07-31T02:23:39;25.90;67.60
12477;DHT22;6303;51.504;6.300;2023-07-31T02:26:06;25.90;67.50
12477;DHT22;6303;51.504;6.300;2023-07-31T02:28:33;25.90;67.30
12477;DHT22;6303;51.504;6.300;2023-07-31T02:31:00;25.90;67.30
12477;DHT22;6303;51.504;6.300;2023-07-31T02:33:28;25.90;67.10
12477;DHT22;6303;51.504;6.300;2023-07-31T02:35:55;25.90;66.90
12477;DHT22;6303;51.504;6.300;2023-07-31T02:38:23;25.90;66.90
12477;DHT22;6303;51.504;6.300;2023-07-31T02:40:50;25.90;66.80
12477;DHT22;6303;51.504;6.300;2023-07-31T02:43:17;25.90;66.70
12477;DHT22;6303;51.504;6.300;2023-07-31T02:45:44;25.90;66.60
12477;DHT22;6303;51.504;6.300;2023-07-31T02:48:11;25.90;66.60
12477;DHT22;6303;51.504;6.300;2023-07-31T02:50:39;25.60;66.30
12477;DHT22;6303;51.504;6.300;2023-07-31T02:53:06;25.90;66.50
12477;DHT22;6303;51.504;6.300;2023-07-31T02:55:33;25.80;66.40
12477;DHT22;6303;51.504;6.300;2023-07-31T02:58:00;25.90;66.50
12477;DHT22;6303;51.504;6.300;2023-07-31T03:00:27;25.90;66.40
12477;DHT22;6303;51.504;6.300;2023-07-31T03:02:55;25.90;66.40
12477;DHT22;6303;51.504;6.300;2023-07-31T03:05:22;25.90;66.30
12477;DHT22;6303;51.504;6.300;2023-07-31T03:07:50;25.90;66.20
12477;DHT22;6303;51.504;6.300;2023-07-31T03:10:17;25.90;66.20
12477;DHT22;6303;51.504;6.300;2023-07-31T03:12:46;25.80;66.10
12477;DHT22;6303;51.504;6.300;2023-07-31T03:15:14;25.80;66.00
12477;DHT22;6303;51.504;6.300;2023-07-31T03:17:41;25.90;66.00
12477;DHT22;6303;51.504;6.300;2023-07-31T03:20:09;25.80;66.00
12477;DHT22;6303;51.504;6.300;2023-07-31T03:22:36;26.10;66.30
12477;DHT22;6303;51.504;6.300;2023-07-31T03:25:05;25.80;66.10
12477;DHT22;6303;51.504;6.300;2023-07-31T03:27:33;25.80;66.10
12477;DHT22;6303;51.504;6.300;2023-07-31T03:30:00;25.80;66.00
12477;DHT22;6303;51.504;6.300;2023-07-31T03:32:27;25.80;66.00
12477;DHT22;6303;51.504;6.300;2023-07-31T03:34:54;25.80;66.00
12477;DHT22;6303;51.504;6.300;2023-07-31T03:37:21;25.80;66.00
12477;DHT22;6303;51.504;6.300;2023-07-31T03:39:48;25.80;66.00
12477;DHT22;6303;51.504;6.300;2023-07-31T03:42:17;25.80;66.00
12477;DHT22;6303;51.504;6.300;2023-07-31T03:44:44;25.80;66.00
12477;DHT22;6303;51.504;6.300;2023-07-31T03:47:11;25.80;66.00
12477;DHT22;6303;51.504;6.300;2023-07-31T03:49:39;25.80;66.10
12477;DHT22;6303;51.504;6.300;2023-07-31T03:52:06;25.80;66.00
12477;DHT22;6303;51.504;6.300;2023-07-31T03:54:33;25.80;66.00
12477;DHT22;6303;51.504;6.300;2023-07-31T03:57:00;25.80;66.00
12477;DHT22;6303;51.504;6.300;2023-07-31T03:59:29;25.80;66.20
12477;DHT22;6303;51.504;6.300;2023-07-31T04:01:56;25.80;66.30
12477;DHT22;6303;51.504;6.300;2023-07-31T04:04:23;25.80;66.40
12477;DHT22;6303;51.504;6.300;2023-07-31T04:06:50;25.80;66.50
12477;DHT22;6303;51.504;6.300;2023-07-31T04:09:17;25.80;66.60
12477;DHT22;6303;51.504;6.300;2023-07-31T04:11:44;25.80;66.60
12477;DHT22;6303;51.504;6.300;2023-07-31T04:14:11;25.80;66.60
12477;DHT22;6303;51.504;6.300;2023-07-31T04:16:39;25.80;66.60
12477;DHT22;6303;51.504;6.300;2023-07-31T04:19:06;26.50;67.10
12477;DHT22;6303;51.504;6.300;2023-07-31T04:21:33;25.80;66.60
12477;DHT22;6303;51.504;6.300;2023-07-31T04:24:00;25.80;66.60
12477;DHT22;6303;51.504;6.300;2023-07-31T04:26:27;25.80;66.70
12477;DHT22;6303;51.504;6.300;2023-07-31T04:28:54;25.80;66.70
12477;DHT22;6303;51.504;6.300;2023-07-31T04:31:21;25.80;66.70
12477;DHT22;6303;51.504;6.300;2023-07-31T04:33:50;25.80;66.70
12477;DHT22;6303;51.504;6.300;2023-07-31T04:36:17;25.80;66.70
12477;DHT22;6303;51.504;6.300;2023-07-31T04:38:44;25.80;66.70
12477;DHT22;6303;51.504;6.300;2023-07-31T04:41:11;25.80;66.60
12477;DHT22;6303;51.504;6.300;2023-07-31T04:43:38;25.80;66.60
12477;DHT22;6303;51.504;6.300;2023-07-31T04:46:06;26.20;66.80
12477;DHT22;6303;51.504;6.300;2023-07-31T04:48:33;25.80;66.60
12477;DHT22;6303;51.504;6.300;2023-07-31T04:51:02;25.80;67.10
12477;DHT22;6303;51.504;6.300;2023-07-31T04:53:29;25.70;66.90
12477;DHT22;6303;51.504;6.300;2023-07-31T04:55:56;25.80;66.90
12477;DHT22;6303;51.504;6.300;2023-07-31T04:58:23;25.90;66.80
12477;DHT22;6303;51.504;6.300;2023-07-31T05:00:50;25.90;66.60
12477;DHT22;6303;51.504;6.300;2023-07-31T05:03:17;25.90;66.60
12477;DHT22;6303;51.504;6.300;2023-07-31T05:05:44;25.80;66.50
12477;DHT22;6303;51.504;6.300;2023-07-31T05:08:12;25.80;66.60
12477;DHT22;6303;51.504;6.300;2023-07-31T05:10:39;25.80;68.90
12477;DHT22;6303;51.504;6.300;2023-07-31T05:13:06;25.90;70.20
12477;DHT22;6303;51.504;6.300;2023-07-31T05:15:33;25.90;69.30
12477;DHT22;6303;51.504;6.300;2023-07-31T05:18:00;25.90;68.50
12477;DHT22;6303;51.504;6.300;2023-07-31T05:20:28;25.80;68.10
12477;DHT22;6303;51.504;6.300;2023-07-31T05:22:55;25.90;68.00
12477;DHT22;6303;51.504;6.300;2023-07-31T05:25:23;25.90;68.30
12477;DHT22;6303;51.504;6.300;2023-07-31T05:27:50;25.90;68.20
12477;DHT22;6303;51.504;6.300;2023-07-31T05:30:17;25.90;68.20
12477;DHT22;6303;51.504;6.300;2023-07-31T05:32:44;25.90;68.20
12477;DHT22;6303;51.504;6.300;2023-07-31T05:35:11;25.90;68.00
12477;DHT22;6303;51.504;6.300;2023-07-31T05:37:38;25.90;68.00
12477;DHT22;6303;51.504;6.300;2023-07-31T05:40:06;25.90;67.90
12477;DHT22;6303;51.504;6.300;2023-07-31T05:42:35;25.90;67.80
12477;DHT22;6303;51.504;6.300;2023-07-31T05:45:05;25.90;67.80
12477;DHT22;6303;51.504;6.300;2023-07-31T05:47:32;25.90;67.80
12477;DHT22;6303;51.504;6.300;2023-07-31T05:49:59;25.90;67.80
12477;DHT22;6303;51.504;6.300;2023-07-31T05:52:27;25.90;67.80
12477;DHT22;6303;51.504;6.300;2023-07-31T05:54:54;25.90;67.80
12477;DHT22;6303;51.504;6.300;2023-07-31T05:57:21;25.90;67.70
12477;DHT22;6303;51.504;6.300;2023-07-31T05:59:50;25.90;67.60
12477;DHT22;6303;51.504;6.300;2023-07-31T06:02:19;25.90;67.60
12477;DHT22;6303;51.504;6.300;2023-07-31T06:04:46;26.00;67.70
12477;DHT22;6303;51.504;6.300;2023-07-31T06:07:13;25.90;67.50
12477;DHT22;6303;51.504;6.300;2023-07-31T06:09:40;25.90;67.50
12477;DHT22;6303;51.504;6.300;2023-07-31T06:12:07;25.90;67.50
12477;DHT22;6303;51.504;6.300;2023-07-31T06:14:34;25.90;67.60
12477;DHT22;6303;51.504;6.300;2023-07-31T06:17:03;26.40;67.90
12477;DHT22;6303;51.504;6.300;2023-07-31T06:19:30;26.00;67.60
12477;DHT22;6303;51.504;6.300;2023-07-31T06:21:57;26.00;67.50
12477;DHT22;6303;51.504;6.300;2023-07-31T06:24:24;26.00;67.50
12477;DHT22;6303;51.504;6.300;2023-07-31T06:26:51;26.00;67.50
12477;DHT22;6303;51.504;6.300;2023-07-31T06:29:18;26.00;67.50
12477;DHT22;6303;51.504;6.300;2023-07-31T06:31:45;26.00;67.60
12477;DHT22;6303;51.504;6.300;2023-07-31T06:34:13;26.00;67.80
12477;DHT22;6303;51.504;6.300;2023-07-31T06:36:40;26.00;67.60
12477;DHT22;6303;51.504;6.300;2023-07-31T06:39:07;26.00;67.60
12477;DHT22;6303;51.504;6.300;2023-07-31T06:41:34;26.00;67.60
12477;DHT22;6303;51.504;6.300;2023-07-31T06:44:05;26.00;67.70
12477;DHT22;6303;51.504;6.300;2023-07-31T06:46:32;26.00;67.80
12477;DHT22;6303;51.504;6.300;2023-07-31T06:48:59;26.00;67.70
12477;DHT22;6303;51.504;6.300;2023-07-31T06:51:28;26.00;67.80
12477;DHT22;6303;51.504;6.300;2023-07-31T06:53:57;26.00;67.70
12477;DHT22;6303;51.504;6.300;2023-07-31T06:56:24;25.90;67.50
12477;DHT22;6303;51.504;6.300;2023-07-31T06:58:51;26.10;67.70
12477;DHT22;6303;51.504;6.300;2023-07-31T07:01:18;26.10;68.40
12477;DHT22;6303;51.504;6.300;2023-07-31T07:03:45;26.00;68.80
12477;DHT22;6303;51.504;6.300;2023-07-31T07:06:12;26.10;68.90
12477;DHT22;6303;51.504;6.300;2023-07-31T07:08:41;26.00;68.80
12477;DHT22;6303;51.504;6.300;2023-07-31T07:11:08;26.00;68.50
12477;DHT22;6303;51.504;6.300;2023-07-31T07:13:35;26.00;68.60
12477;DHT22;6303;51.504;6.300;2023-07-31T07:16:02;26.00;68.30
12477;DHT22;6303;51.504;6.300;2023-07-31T07:18:29;24.90;67.40
12477;DHT22;6303;51.504;6.300;2023-07-31T07:20:56;26.00;68.20
12477;DHT22;6303;51.504;6.300;2023-07-31T07:23:24;26.00;68.20
12477;DHT22;6303;51.504;6.300;2023-07-31T07:25:53;26.00;68.10
12477;DHT22;6303;51.504;6.300;2023-07-31T07:28:20;26.00;68.10
12477;DHT22;6303;51.504;6.300;2023-07-31T07:30:51;26.00;68.20
12477;DHT22;6303;51.504;6.300;2023-07-31T07:33:19;26.10;68.20
12477;DHT22;6303;51.504;6.300;2023-07-31T07:35:46;26.10;68.20
12477;DHT22;6303;51.504;6.300;2023-07-31T07:38:14;26.00;67.90
12477;DHT22;6303;51.504;6.300;2023-07-31T07:40:41;26.10;67.80
12477;DHT22;6303;51.504;6.300;2023-07-31T07:43:09;26.10;68.00
12477;DHT22;6303;51.504;6.300;2023-07-31T07:45:36;26.10;68.00
12477;DHT22;6303;51.504;6.300;2023-07-31T07:48:04;26.10;68.10
12477;DHT22;6303;51.504;6.300;2023-07-31T07:50:31;26.00;68.00
12477;DHT22;6303;51.504;6.300;2023-07-31T07:52:58;26.00;68.00
12477;DHT22;6303;51.504;6.300;2023-07-31T07:55:25;26.10;67.80
12477;DHT22;6303;51.504;6.300;2023-07-31T07:57:53;26.10;67.80
12477;DHT22;6303;51.504;6.300;2023-07-31T08:00:21;26.10;67.70
12477;DHT22;6303;51.504;6.300;2023-07-31T08:02:48;26.10;67.60
12477;DHT22;6303;51.504;6.300;2023-07-31T08:05:15;26.20;67.80
12477;DHT22;6303;51.504;6.300;2023-07-31T08:07:43;24.90;66.60
12477;DHT22;6303;51.504;6.300;2023-07-31T08:10:10;26.20;67.60
12477;DHT22;6303;51.504;6.300;2023-07-31T08:12:37;26.20;67.50
12477;DHT22;6303;51.504;6.300;2023-07-31T08:15:05;26.20;67.30
12477;DHT22;6303;51.504;6.300;2023-07-31T08:17:34;26.20;67.30
12477;DHT22;6303;51.504;6.300;2023-07-31T08:20:01;26.30;67.30
12477;DHT22;6303;51.504;6.300;2023-07-31T08:22:28;26.30;67.30
12477;DHT22;6303;51.504;6.300;2023-07-31T08:24:55;26.30;67.10
12477;DHT22;6303;51.504;6.300;2023-07-31T08:27:22;26.30;67.00
12477;DHT22;6303;51.504;6.300;2023-07-31T08:29:49;26.30;67.00
12477;DHT22;6303;51.504;6.300;2023-07-31T08:32:16;26.30;67.10
12477;DHT22;6303;51.504;6.300;2023-07-31T08:34:44;26.30;67.10
12477;DHT22;6303;51.504;6.300;2023-07-31T08:37:11;26.30;67.10
12477;DHT22;6303;51.504;6.300;2023-07-31T08:39:38;26.30;67.10
12477;DHT22;6303;51.504;6.300;2023-07-31T08:42:08;26.30;67.30
12477;DHT22;6303;51.504;6.300;2023-07-31T08:44:36;26.30;67.10
12477;DHT22;6303;51.504;6.300;2023-07-31T08:47:04;26.20;67.10
12477;DHT22;6303;51.504;6.300;2023-07-31T08:49:32;26.20;67.10
12477;DHT22;6303;51.504;6.300;2023-07-31T08:52:02;26.30;67.20
12477;DHT22;6303;51.504;6.300;2023-07-31T08:54:29;26.30;67.10
12477;DHT22;6303;51.504;6.300;2023-07-31T08:56:58;26.20;67.10
12477;DHT22;6303;51.504;6.300;2023-07-31T08:59:27;26.30;67.10
12477;DHT22;6303;51.504;6.300;2023-07-31T09:01:57;26.30;67.10
12477;DHT22;6303;51.504;6.300;2023-07-31T09:04:25;26.30;67.10
12477;DHT22;6303;51.504;6.300;2023-07-31T09:06:57;26.30;67.10
12477;DHT22;6303;51.504;6.300;2023-07-31T09:09:27;26.30;67.70
12477;DHT22;6303;51.504;6.300;2023-07-31T09:11:55;26.30;68.30
12477;DHT22;6303;51.504;6.300;2023-07-31T09:14:25;26.30;68.70
12477;DHT22;6303;51.504;6.300;2023-07-31T09:16:53;26.20;69.10
12477;DHT22;6303;51.504;6.300;2023-07-31T09:19:29;26.20;69.40
12477;DHT22;6303;51.504;6.300;2023-07-31T09:21:56;26.20;69.70
12477;DHT22;6303;51.504;6.300;2023-07-31T09:24:28;26.10;69.90
12477;DHT22;6303;51.504;6.300;2023-07-31T09:26:56;26.10;70.10
12477;DHT22;6303;51.504;6.300;2023-07-31T09:29:24;26.10;70.20
12477;DHT22;6303;51.504;6.300;2023-07-31T09:31:53;26.10;70.50
12477;DHT22;6303;51.504;6.300;2023-07-31T09:34:20;26.10;70.70
12477;DHT22;6303;51.504;6.300;2023-07-31T09:36:54;26.00;70.70
12477;DHT22;6303;51.504;6.300;2023-07-31T09:39:22;26.10;70.80
12477;DHT22;6303;51.504;6.300;2023-07-31T09:41:55;26.00;70.90
12477;DHT22;6303;51.504;6.300;2023-07-31T09:44:37;26.00;71.00
12477;DHT22;6303;51.504;6.300;2023-07-31T09:47:05;26.00;71.20
12477;DHT22;6303;51.504;6.300;2023-07-31T09:49:32;26.00;71.30
12477;DHT22;6303;51.504;6.300;2023-07-31T09:51:59;26.00;71.20
12477;DHT22;6303;51.504;6.300;2023-07-31T09:54:26;25.90;71.20
12477;DHT22;6303;51.504;6.300;2023-07-31T09:56:57;25.90;71.10
12477;DHT22;6303;51.504;6.300;2023-07-31T09:59:25;25.90;71.20
12477;DHT22;6303;51.504;6.300;2023-07-31T10:01:53;26.00;71.10
12477;DHT22;6303;51.504;6.300;2023-07-31T10:04:27;26.00;70.90
12477;DHT22;6303;51.504;6.300;2023-07-31T10:06:55;26.00;70.60
12477;DHT22;6303;51.504;6.300;2023-07-31T10:09:24;26.10;70.30
12477;DHT22;6303;51.504;6.300;2023-07-31T10:11:59;26.10;70.10
12477;DHT22;6303;51.504;6.300;2023-07-31T10:14:27;26.10;70.00
12477;DHT22;6303;51.504;6.300;2023-07-31T10:16:55;26.20;69.60
12477;DHT22;6303;51.504;6.300;2023-07-31T10:19:22;26.20;69.50
12477;DHT22;6303;51.504;6.300;2023-07-31T10:21:50;26.20;69.30
12477;DHT22;6303;51.504;6.300;2023-07-31T10:24:18;26.20;69.20
12477;DHT22;6303;51.504;6.300;2023-07-31T10:26:47;26.20;69.10
12477;DHT22;6303;51.504;6.300;2023-07-31T10:29:17;26.30;68.90
12477;DHT22;6303;51.504;6.300;2023-07-31T10:31:47;26.30;68.80
12477;DHT22;6303;51.504;6.300;2023-07-31T10:34:15;26.90;69.20
12477;DHT22;6303;51.504;6.300;2023-07-31T10:36:42;26.30;68.70
12477;DHT22;6303;51.504;6.300;2023-07-31T10:39:34;26.30;68.50
12477;DHT22;6303;51.504;6.300;2023-07-31T10:42:10;26.30;68.60
12477;DHT22;6303;51.504;6.300;2023-07-31T10:44:43;26.30;68.60
12477;DHT22;6303;51.504;6.300;2023-07-31T10:47:10;26.30;68.60
12477;DHT22;6303;51.504;6.300;2023-07-31T10:49:40;26.30;69.20
12477;DHT22;6303;51.504;6.300;2023-07-31T10:52:13;26.30;68.40
12477;DHT22;6303;51.504;6.300;2023-07-31T10:54:40;26.30;68.40
12477;DHT22;6303;51.504;6.300;2023-07-31T10:57:19;26.30;68.20
12477;DHT22;6303;51.504;6.300;2023-07-31T10:59:48;26.30;68.20
12477;DHT22;6303;51.504;6.300;2023-07-31T11:02:26;26.30;68.20
12477;DHT22;6303;51.504;6.300;2023-07-31T11:05:08;26.30;68.20
12477;DHT22;6303;51.504;6.300;2023-07-31T11:07:48;26.30;68.70
12477;DHT22;6303;51.504;6.300;2023-07-31T11:10:19;26.30;68.70
12477;DHT22;6303;51.504;6.300;2023-07-31T11:12:46;26.30;68.90
12477;DHT22;6303;51.504;6.300;2023-07-31T11:15:14;26.30;68.60
12477;DHT22;6303;51.504;6.300;2023-07-31T11:17:42;26.30;68.50
12477;DHT22;6303;51.504;6.300;2023-07-31T11:20:09;26.30;68.30
12477;DHT22;6303;51.504;6.300;2023-07-31T11:22:37;26.40;68.40
12477;DHT22;6303;51.504;6.300;2023-07-31T11:25:04;26.40;68.50
12477;DHT22;6303;51.504;6.300;2023-07-31T11:27:38;26.40;68.90
12477;DHT22;6303;51.504;6.300;2023-07-31T11:30:07;26.40;69.30
12477;DHT22;6303;51.504;6.300;2023-07-31T11:32:37;26.40;69.40
12477;DHT22;6303;51.504;6.300;2023-07-31T11:35:05;26.40;69.40
12477;DHT22;6303;51.504;6.300;2023-07-31T11:37:40;26.40;69.40
12477;DHT22;6303;51.504;6.300;2023-07-31T11:40:08;26.40;69.40
12477;DHT22;6303;51.504;6.300;2023-07-31T11:42:35;26.40;69.40
12477;DHT22;6303;51.504;6.300;2023-07-31T11:45:03;26.40;69.40
12477;DHT22;6303;51.504;6.300;2023-07-31T11:47:32;26.40;69.30
12477;DHT22;6303;51.504;6.300;2023-07-31T11:50:03;26.40;69.30
12477;DHT22;6303;51.504;6.300;2023-07-31T11:52:33;26.40;69.20
12477;DHT22;6303;51.504;6.300;2023-07-31T11:55:00;26.40;69.20
12477;DHT22;6303;51.504;6.300;2023-07-31T11:57:28;26.40;69.20
12477;DHT22;6303;51.504;6.300;2023-07-31T11:59:55;27.60;70.10
12477;DHT22;6303;51.504;6.300;2023-07-31T12:02:23;26.40;69.20
12477;DHT22;6303;51.504;6.300;2023-07-31T12:04:51;26.40;69.20
12477;DHT22;6303;51.504;6.300;2023-07-31T12:07:19;26.40;69.10
12477;DHT22;6303;51.504;6.300;2023-07-31T12:09:53;26.40;69.20
12477;DHT22;6303;51.504;6.300;2023-07-31T12:12:20;26.40;69.20
12477;DHT22;6303;51.504;6.300;2023-07-31T12:14:48;26.40;69.20
12477;DHT22;6303;51.504;6.300;2023-07-31T12:17:17;26.40;69.10
12477;DHT22;6303;51.504;6.300;2023-07-31T12:19:45;26.40;69.20
12477;DHT22;6303;51.504;6.300;2023-07-31T12:22:13;26.40;69.20
12477;DHT22;6303;51.504;6.300;2023-07-31T12:24:43;26.40;69.20
12477;DHT22;6303;51.504;6.300;2023-07-31T12:27:11;26.40;69.20
12477;DHT22;6303;51.504;6.300;2023-07-31T12:29:39;26.40;69.10
12477;DHT22;6303;51.504;6.300;2023-07-31T12:32:21;26.40;69.10
12477;DHT22;6303;51.504;6.300;2023-07-31T12:34:49;26.40;69.00
12477;DHT22;6303;51.504;6.300;2023-07-31T12:37:16;26.40;69.10
12477;DHT22;6303;51.504;6.300;2023-07-31T12:39:45;26.40;69.10
12477;DHT22;6303;51.504;6.300;2023-07-31T12:42:12;26.40;69.20
12477;DHT22;6303;51.504;6.300;2023-07-31T12:44:39;26.40;69.40
12477;DHT22;6303;51.504;6.300;2023-07-31T12:47:06;26.40;69.40
12477;DHT22;6303;51.504;6.300;2023-07-31T12:49:33;26.40;69.40
12477;DHT22;6303;51.504;6.300;2023-07-31T12:52:00;26.40;69.50
12477;DHT22;6303;51.504;6.300;2023-07-31T12:54:27;26.40;69.60
12477;DHT22;6303;51.504;6.300;2023-07-31T12:56:55;26.40;69.60
12477;DHT22;6303;51.504;6.300;2023-07-31T12:59:22;26.40;69.70
12477;DHT22;6303;51.504;6.300;2023-07-31T13:01:49;26.40;69.60
12477;DHT22;6303;51.504;6.300;2023-07-31T13:04:16;26.40;69.60
12477;DHT22;6303;51.504;6.300;2023-07-31T13:06:44;26.40;69.70
12477;DHT22;6303;51.504;6.300;2023-07-31T13:09:11;26.40;69.80
12477;DHT22;6303;51.504;6.300;2023-07-31T13:11:38;26.40;69.90
12477;DHT22;6303;51.504;6.300;2023-07-31T13:14:06;26.40;70.00
12477;DHT22;6303;51.504;6.300;2023-07-31T13:16:33;26.40;70.00
12477;DHT22;6303;51.504;6.300;2023-07-31T13:19:01;26.40;69.90
12477;DHT22;6303;51.504;6.300;2023-07-31T13:21:28;26.40;69.80
12477;DHT22;6303;51.504;6.300;2023-07-31T13:23:55;26.40;69.80
12477;DHT22;6303;51.504;6.300;2023-07-31T13:26:23;26.40;70.00
12477;DHT22;6303;51.504;6.300;2023-07-31T13:28:50;26.40;70.00
12477;DHT22;6303;51.504;6.300;2023-07-31T13:31:19;25.60;69.50
12477;DHT22;6303;51.504;6.300;2023-07-31T13:33:46;26.40;70.20
12477;DHT22;6303;51.504;6.300;2023-07-31T13:36:13;26.40;70.20
12477;DHT22;6303;51.504;6.300;2023-07-31T13:38:40;26.40;70.30
12477;DHT22;6303;51.504;6.300;2023-07-31T13:41:07;26.40;70.60
12477;DHT22;6303;51.504;6.300;2023-07-31T13:43:34;26.40;70.90
12477;DHT22;6303;51.504;6.300;2023-07-31T13:46:02;26.40;71.30
12477;DHT22;6303;51.504;6.300;2023-07-31T13:48:34;26.40;71.40
12477;DHT22;6303;51.504;6.300;2023-07-31T13:51:01;26.50;71.30
12477;DHT22;6303;51.504;6.300;2023-07-31T13:53:28;26.50;71.20
12477;DHT22;6303;51.504;6.300;2023-07-31T13:55:55;26.50;71.30
12477;DHT22;6303;51.504;6.300;2023-07-31T13:58:22;26.50;71.30
12477;DHT22;6303;51.504;6.300;2023-07-31T14:00:50;26.50;71.30
12477;DHT22;6303;51.504;6.300;2023-07-31T14:03:17;26.40;71.10
12477;DHT22;6303;51.504;6.300;2023-07-31T14:05:45;26.50;71.20
12477;DHT22;6303;51.504;6.300;2023-07-31T14:08:12;26.50;71.20
12477;DHT22;6303;51.504;6.300;2023-07-31T14:10:39;26.40;71.10
12477;DHT22;6303;51.504;6.300;2023-07-31T14:13:06;26.40;71.90
12477;DHT22;6303;51.504;6.300;2023-07-31T14:15:33;26.50;71.10
12477;DHT22;6303;51.504;6.300;2023-07-31T14:18:01;26.50;71.10
12477;DHT22;6303;51.504;6.300;2023-07-31T14:20:29;26.40;71.10
12477;DHT22;6303;51.504;6.300;2023-07-31T14:22:58;26.40;71.10
12477;DHT22;6303;51.504;6.300;2023-07-31T14:25:25;26.40;71.10
12477;DHT22;6303;51.504;6.300;2023-07-31T14:27:52;26.40;71.20
12477;DHT22;6303;51.504;6.300;2023-07-31T14:30:19;26.40;71.20
12477;DHT22;6303;51.504;6.300;2023-07-31T14:32:46;26.40;71.20
12477;DHT22;6303;51.504;6.300;2023-07-31T14:35:13;26.40;71.30
12477;DHT22;6303;51.504;6.300;2023-07-31T14:37:41;26.40;71.10
12477;DHT22;6303;51.504;6.300;2023-07-31T14:40:11;27.10;71.70
12477;DHT22;6303;51.504;6.300;2023-07-31T14:42:39;26.40;71.30
12477;DHT22;6303;51.504;6.300;2023-07-31T14:45:07;26.40;71.20
12477;DHT22;6303;51.504;6.300;2023-07-31T14:47:35;26.40;71.20
12477;DHT22;6303;51.504;6.300;2023-07-31T14:50:03;26.40;71.10
12477;DHT22;6303;51.504;6.300;2023-07-31T14:52:30;26.40;71.10
12477;DHT22;6303;51.504;6.300;2023-07-31T14:54:57;26.40;71.20
12477;DHT22;6303;51.504;6.300;2023-07-31T14:57:26;26.40;71.20
12477;DHT22;6303;51.504;6.300;2023-07-31T14:59:53;26.40;71.30
12477;DHT22;6303;51.504;6.300;2023-07-31T15:02:20;26.40;71.40
12477;DHT22;6303;51.504;6.300;2023-07-31T15:04:47;26.40;71.50
12477;DHT22;6303;51.504;6.300;2023-07-31T15:07:14;26.40;71.60
12477;DHT22;6303;51.504;6.300;2023-07-31T15:09:41;26.40;71.70
12477;DHT22;6303;51.504;6.300;2023-07-31T15:12:08;26.40;71.70
12477;DHT22;6303;51.504;6.300;2023-07-31T15:14:36;26.40;71.70
12477;DHT22;6303;51.504;6.300;2023-07-31T15:17:04;26.40;71.70
12477;DHT22;6303;51.504;6.300;2023-07-31T15:19:31;26.40;71.70
12477;DHT22;6303;51.504;6.300;2023-07-31T15:22:00;26.40;72.00
12477;DHT22;6303;51.504;6.300;2023-07-31T15:24:28;26.40;72.40
12477;DHT22;6303;51.504;6.300;2023-07-31T15:26:55;26.30;72.40
12477;DHT22;6303;51.504;6.300;2023-07-31T15:29:22;26.30;72.80
12477;DHT22;6303;51.504;6.300;2023-07-31T15:31:50;26.30;72.80
12477;DHT22;6303;51.504;6.300;2023-07-31T15:34:17;26.30;72.80
12477;DHT22;6303;51.504;6.300;2023-07-31T15:36:44;26.30;72.80
12477;DHT22;6303;51.504;6.300;2023-07-31T15:39:12;26.30;72.70
12477;DHT22;6303;51.504;6.300;2023-07-31T15:41:40;26.30;72.70
12477;DHT22;6303;51.504;6.300;2023-07-31T15:44:07;26.30;72.60
12477;DHT22;6303;51.504;6.300;2023-07-31T15:46:34;26.30;72.70
12477;DHT22;6303;51.504;6.300;2023-07-31T15:49:03;26.30;72.70
12477;DHT22;6303;51.504;6.300;2023-07-31T15:51:30;26.30;72.60